Time;durP1;ratioP1;P1;durP2;ratioP2;P2;SDS_P1;SDS_P2;PMS_P1;PMS_P2;Temp;Humidity;BMP_temperature;BMP_pressure;BME280_temperature;BME280_humidity;BME280_pressure;Samples;Min_cycle;Max_cycle;Signal;HPM_P1;HPM_P2
2022/03/13 00:00:34;;;;;;;60.30;29.17;;;2.00;99.90;;;;;;4996970;28;20108;-62
2022/03/13 00:03:11;;;;;;;63.25;32.90;;;1.90;99.90;;;;;;4993999;28;20799;-61
2022/03/13 00:05:41;;;;;;;57.78;30.42;;;1.90;99.90;;;;;;4996309;28;20045;-61
2022/03/13 00:08:23;;;;;;;59.42;30.20;;;1.90;99.90;;;;;;4996471;28;20530;-62
2022/03/13 00:10:56;;;;;;;55.75;27.15;;;1.90;99.90;;;;;;4996149;28;20057;-61
2022/03/13 00:13:35;;;;;;;55.85;32.05;;;1.80;99.90;;;;;;4995629;28;20049;-62
2022/03/13 00:16:08;;;;;;;64.88;33.35;;;1.80;99.90;;;;;;4995780;28;20690;-61
2022/03/13 00:18:36;;;;;;;62.53;33.30;;;1.80;99.90;;;;;;4996440;28;20078;-61
2022/03/13 00:21:04;;;;;;;54.65;29.63;;;1.80;99.90;;;;;;4996318;28;20057;-61
2022/03/13 00:23:33;;;;;;;50.15;27.60;;;1.70;99.90;;;;;;4995997;28;20532;-61
2022/03/13 00:26:01;;;;;;;55.67;29.60;;;1.80;99.90;;;;;;4995972;28;20041;-61
2022/03/13 00:28:28;;;;;;;57.67;30.20;;;1.70;99.90;;;;;;4996413;28;20042;-62
2022/03/13 00:31:01;;;;;;;52.50;27.90;;;1.80;99.90;;;;;;4996538;28;20065;-61
2022/03/13 00:33:28;;;;;;;67.07;32.33;;;1.70;99.90;;;;;;4992731;28;20050;-62
2022/03/13 00:35:54;;;;;;;;;;;1.70;99.90;;;;;;4996718;28;20056;-61
2022/03/13 00:38:25;;;;;;;59.90;28.58;;;1.70;99.90;;;;;;4995919;28;19925;-61
2022/03/13 00:40:54;;;;;;;54.22;30.15;;;1.70;99.90;;;;;;4995848;28;20811;-61
2022/03/13 00:43:23;;;;;;;54.58;29.15;;;1.80;99.90;;;;;;4995153;28;20096;-61
2022/03/13 00:45:51;;;;;;;52.42;28.33;;;1.80;99.90;;;;;;4995025;28;20046;-61
2022/03/13 00:48:18;;;;;;;61.63;30.48;;;1.70;99.90;;;;;;4995753;28;20053;-62
2022/03/13 00:50:46;;;;;;;50.55;26.23;;;1.80;99.90;;;;;;4995875;28;20471;-62
2022/03/13 00:53:13;;;;;;;54.22;29.42;;;1.70;99.90;;;;;;4994759;28;20100;-61
2022/03/13 00:55:40;;;;;;;51.95;29.52;;;1.70;99.90;;;;;;4995526;28;20049;-61
2022/03/13 00:58:12;;;;;;;52.53;28.30;;;1.70;99.90;;;;;;4995478;28;20048;-61
2022/03/13 01:00:38;;;;;;;;;;;1.70;99.90;;;;;;4996930;28;20046;-61
2022/03/13 01:03:05;;;;;;;49.67;26.20;;;1.70;99.90;;;;;;4994631;28;20406;-61
2022/03/13 01:05:32;;;;;;;48.00;26.23;;;1.70;99.90;;;;;;4995590;28;20116;-61
2022/03/13 01:07:59;;;;;;;;;;;1.70;99.90;;;;;;4995729;28;20050;-61
2022/03/13 01:10:26;;;;;;;47.03;23.90;;;1.70;99.90;;;;;;4994858;28;19925;-61
2022/03/13 01:12:53;;;;;;;;;;;1.60;99.90;;;;;;4995977;28;20551;-61
2022/03/13 01:15:21;;;;;;;44.53;23.85;;;1.70;99.90;;;;;;4994311;28;19926;-62
2022/03/13 01:17:48;;;;;;;48.30;26.45;;;1.60;99.90;;;;;;4995297;28;20227;-62
2022/03/13 01:20:18;;;;;;;55.97;28.00;;;1.70;99.90;;;;;;4996499;28;20046;-61
2022/03/13 01:22:45;;;;;;;52.58;26.55;;;1.70;99.90;;;;;;4995203;28;20046;-61
2022/03/13 01:25:12;;;;;;;41.15;23.48;;;1.70;99.90;;;;;;4994337;28;20042;-62
2022/03/13 01:27:42;;;;;;;46.72;24.15;;;1.70;99.90;;;;;;4995181;28;21001;-61
2022/03/13 01:30:10;;;;;;;46.35;25.80;;;1.70;99.90;;;;;;4996174;28;20046;-61
2022/03/13 01:32:37;;;;;;;42.85;22.65;;;1.70;99.90;;;;;;4995822;28;20053;-61
2022/03/13 01:35:04;;;;;;;;;;;1.80;99.90;;;;;;4994245;28;20045;-61
2022/03/13 01:37:36;;;;;;;47.72;22.40;;;1.70;99.90;;;;;;4995659;28;20441;-62
2022/03/13 01:40:08;;;;;;;40.95;20.92;;;1.70;99.90;;;;;;4995075;28;20076;-62
2022/03/13 01:42:37;;;;;;;47.28;23.05;;;1.70;99.90;;;;;;4995840;28;20034;-62
2022/03/13 01:45:04;;;;;;;42.55;21.55;;;1.70;99.90;;;;;;4994530;28;20396;-61
2022/03/13 01:47:31;;;;;;;49.28;23.42;;;1.70;99.90;;;;;;4994504;28;20038;-61
2022/03/13 01:49:58;;;;;;;37.83;21.15;;;1.60;99.90;;;;;;4995645;28;20116;-62
2022/03/13 01:52:26;;;;;;;;;;;1.60;99.90;;;;;;4995101;28;20095;-61
2022/03/13 01:54:55;;;;;;;41.63;21.80;;;1.60;99.90;;;;;;4994129;28;19992;-62
2022/03/13 01:57:22;;;;;;;37.80;21.27;;;1.60;99.90;;;;;;4995749;28;20322;-62
2022/03/13 01:59:53;;;;;;;42.42;19.63;;;1.60;99.90;;;;;;4993918;28;20053;-61
2022/03/13 02:02:25;;;;;;;36.92;20.52;;;1.70;99.90;;;;;;4995342;28;20049;-61
2022/03/13 02:04:54;;;;;;;40.60;21.52;;;1.70;99.90;;;;;;4992822;28;20050;-61
2022/03/13 02:07:22;;;;;;;33.78;19.55;;;1.70;99.90;;;;;;4995200;28;20506;-62
2022/03/13 02:09:50;;;;;;;41.92;22.20;;;1.60;99.90;;;;;;4994826;28;20045;-61
2022/03/13 02:12:18;;;;;;;37.78;19.73;;;1.60;99.90;;;;;;4994212;28;20080;-62
2022/03/13 02:14:46;;;;;;;36.10;19.67;;;1.50;99.90;;;;;;4994233;28;20099;-62
2022/03/13 02:17:24;;;;;;;37.92;20.00;;;1.60;99.90;;;;;;4994625;28;20421;-61
2022/03/13 02:19:51;;;;;;;31.50;18.88;;;1.50;99.90;;;;;;4997765;28;20046;-61
2022/03/13 02:22:18;;;;;;;41.50;22.05;;;1.50;99.90;;;;;;4998311;28;20046;-61
2022/03/13 02:24:48;;;;;;;;;;;1.50;99.90;;;;;;4997423;28;20046;-61
2022/03/13 02:27:21;;;;;;;40.17;20.52;;;1.50;99.90;;;;;;4998692;28;19921;-61
2022/03/13 02:29:49;;;;;;;42.28;22.17;;;1.50;99.90;;;;;;4997819;28;20104;-62
2022/03/13 02:32:17;;;;;;;37.05;20.00;;;1.50;99.90;;;;;;4997699;28;20639;-62
2022/03/13 02:34:45;;;;;;;39.03;21.13;;;1.50;99.90;;;;;;4996519;28;20080;-61
2022/03/13 02:37:43;;;;;;;41.17;21.27;;;1.50;99.90;;;;;;4998437;28;20077;-61
2022/03/13 02:40:24;;;;;;;44.55;21.38;;;1.50;99.90;;;;;;4998485;28;20112;-61
2022/03/13 02:42:52;;;;;;;42.78;21.15;;;1.50;99.90;;;;;;4997707;28;20420;-61
2022/03/13 02:45:33;;;;;;;39.83;19.70;;;1.50;99.90;;;;;;4997182;28;20563;-61
2022/03/13 02:48:02;;;;;;;37.25;19.77;;;1.50;99.90;;;;;;4997290;28;20246;-61
2022/03/13 02:50:30;;;;;;;40.33;19.67;;;1.50;99.90;;;;;;4998618;28;20557;-61
2022/03/13 02:52:57;;;;;;;38.65;19.88;;;1.50;99.90;;;;;;4997436;28;20046;-61
2022/03/13 02:55:24;;;;;;;44.00;22.35;;;1.50;99.90;;;;;;4997179;28;20431;-62
2022/03/13 02:57:52;;;;;;;39.95;20.73;;;1.50;99.90;;;;;;4998408;28;20053;-61
2022/03/13 03:00:21;;;;;;;36.70;19.63;;;1.50;99.90;;;;;;4988409;28;20069;-61
2022/03/13 03:02:48;;;;;;;38.58;19.88;;;1.50;99.90;;;;;;4997542;28;20046;-62
2022/03/13 03:05:15;;;;;;;38.20;19.83;;;1.50;99.90;;;;;;4994681;28;20095;-62
2022/03/13 03:07:42;;;;;;;;;;;1.50;99.90;;;;;;4998004;28;20057;-61
2022/03/13 03:10:13;;;;;;;36.47;18.67;;;1.40;99.90;;;;;;4997569;28;19932;-61
2022/03/13 03:12:40;;;;;;;39.63;18.60;;;1.40;99.90;;;;;;4997007;28;20042;-61
2022/03/13 03:15:07;;;;;;;40.70;19.40;;;1.40;99.90;;;;;;4996461;28;20045;-62
2022/03/13 03:17:34;;;;;;;38.13;21.00;;;1.40;99.90;;;;;;4997337;28;20041;-62
2022/03/13 03:20:00;;;;;;;;;;;1.40;99.90;;;;;;4997067;28;20523;-61
2022/03/13 03:22:27;;;;;;;46.65;19.70;;;1.40;99.90;;;;;;4998110;28;20012;-61
2022/03/13 03:24:54;;;;;;;41.83;18.67;;;1.40;99.90;;;;;;4995281;28;20088;-61
2022/03/13 03:27:21;;;;;;;;;;;1.40;99.90;;;;;;4998284;28;20045;-61
2022/03/13 03:29:48;;;;;;;38.38;17.88;;;1.40;99.90;;;;;;4997439;28;19987;-62
2022/03/13 03:32:15;;;;;;;38.97;18.65;;;1.40;99.90;;;;;;4996970;28;20531;-61
2022/03/13 03:34:42;;;;;;;36.97;17.70;;;1.40;99.90;;;;;;4996062;28;20499;-61
2022/03/13 03:37:09;;;;;;;;;;;1.40;99.90;;;;;;4997199;28;20057;-61
2022/03/13 03:39:36;;;;;;;35.95;18.90;;;1.40;99.90;;;;;;4997174;28;20370;-61
2022/03/13 03:42:02;;;;;;;;;;;1.40;99.90;;;;;;4997940;28;20046;-61
2022/03/13 03:44:29;;;;;;;35.65;18.00;;;1.40;99.90;;;;;;4995424;28;20487;-61
2022/03/13 03:46:56;;;;;;;36.78;18.80;;;1.40;99.90;;;;;;4997188;28;20046;-62
2022/03/13 03:49:23;;;;;;;35.97;18.20;;;1.40;99.90;;;;;;4996658;28;20042;-62
2022/03/13 03:51:52;;;;;;;29.88;16.83;;;1.40;99.90;;;;;;4996731;28;20045;-62
2022/03/13 03:54:19;;;;;;;37.28;18.17;;;1.30;99.90;;;;;;4995093;28;20057;-62
2022/03/13 03:56:45;;;;;;;32.03;16.70;;;1.40;99.90;;;;;;4996446;28;20053;-62
2022/03/13 03:59:12;;;;;;;;;;;1.40;99.90;;;;;;4997948;28;20054;-62
2022/03/13 04:01:41;;;;;;;30.60;17.02;;;1.40;99.90;;;;;;4994989;28;19925;-62
2022/03/13 04:04:16;;;;;;;32.13;17.25;;;1.30;99.90;;;;;;4995752;28;20128;-62
2022/03/13 04:06:43;;;;;;;29.65;16.45;;;1.40;99.90;;;;;;4996565;28;20117;-62
2022/03/13 04:09:11;;;;;;;35.05;17.80;;;1.40;99.90;;;;;;4994778;28;20103;-62
2022/03/13 04:11:39;;;;;;;28.35;16.67;;;1.40;99.90;;;;;;4996754;28;20046;-62
2022/03/13 04:14:08;;;;;;;33.25;17.95;;;1.40;99.90;;;;;;4994617;28;20056;-62
2022/03/13 04:16:35;;;;;;;36.45;17.25;;;1.40;99.90;;;;;;4996738;28;20108;-62
2022/03/13 04:19:02;;;;;;;30.40;16.15;;;1.40;99.90;;;;;;4996188;28;20037;-62
2022/03/13 04:21:29;;;;;;;;;;;1.30;99.90;;;;;;4997097;28;20042;-62
2022/03/13 04:23:56;;;;;;;28.60;15.70;;;1.30;99.90;;;;;;4995853;28;19925;-62
2022/03/13 04:26:24;;;;;;;;;;;1.30;99.90;;;;;;4996368;28;20049;-62
2022/03/13 04:28:51;;;;;;;30.92;16.77;;;1.20;99.90;;;;;;4996786;28;19932;-62
2022/03/13 04:31:18;;;;;;;36.72;16.98;;;1.20;99.90;;;;;;4995983;28;20500;-62
2022/03/13 04:33:47;;;;;;;30.50;16.17;;;1.20;99.90;;;;;;4995055;28;20046;-62
2022/03/13 04:36:17;;;;;;;39.28;18.30;;;1.20;99.90;;;;;;4995800;28;20046;-61
2022/03/13 04:38:44;;;;;;;30.98;15.95;;;1.20;99.90;;;;;;4995637;28;20050;-61
2022/03/13 04:41:11;;;;;;;30.85;16.35;;;1.20;99.90;;;;;;4995961;28;20618;-62
2022/03/13 04:43:38;;;;;;;34.65;17.45;;;1.20;99.90;;;;;;4994816;28;20042;-62
2022/03/13 04:46:06;;;;;;;34.20;18.38;;;1.20;99.90;;;;;;4995315;28;20050;-62
2022/03/13 04:48:34;;;;;;;37.50;17.40;;;1.20;99.90;;;;;;4996872;28;20666;-62
2022/03/13 04:51:01;;;;;;;33.65;16.80;;;1.20;99.90;;;;;;4995637;28;20045;-62
2022/03/13 04:53:29;;;;;;;28.67;15.65;;;1.20;99.90;;;;;;4994447;28;20038;-62
2022/03/13 04:55:56;;;;;;;32.85;17.02;;;1.20;99.90;;;;;;4995877;28;20089;-62
2022/03/13 04:58:24;;;;;;;;;;;1.20;99.90;;;;;;4996865;28;20042;-62
2022/03/13 05:00:53;;;;;;;29.67;16.00;;;1.20;99.90;;;;;;4995759;28;19926;-62
2022/03/13 05:03:20;;;;;;;34.03;16.45;;;1.20;99.90;;;;;;4994502;28;20068;-62
2022/03/13 05:05:47;;;;;;;26.75;14.30;;;1.20;99.90;;;;;;4995146;28;20822;-62
2022/03/13 05:08:15;;;;;;;;;;;1.20;99.90;;;;;;4996212;28;20418;-62
2022/03/13 05:10:43;;;;;;;25.45;14.95;;;1.20;99.90;;;;;;4995794;28;19975;-62
2022/03/13 05:13:12;;;;;;;25.17;13.23;;;1.20;99.90;;;;;;4995012;28;20042;-62
2022/03/13 05:15:39;;;;;;;27.80;13.95;;;1.10;99.90;;;;;;4993417;28;20049;-62
2022/03/13 05:18:07;;;;;;;27.80;14.32;;;1.10;99.90;;;;;;4995720;28;20046;-62
2022/03/13 05:20:35;;;;;;;30.83;16.80;;;1.10;99.90;;;;;;4995663;28;20042;-62
2022/03/13 05:23:04;;;;;;;24.90;13.75;;;1.10;99.90;;;;;;4995029;28;20464;-62
2022/03/13 05:25:32;;;;;;;25.42;14.05;;;1.10;99.90;;;;;;4995239;28;20046;-62
2022/03/13 05:28:00;;;;;;;29.85;14.48;;;1.10;99.90;;;;;;4995459;28;20136;-62
2022/03/13 05:30:27;;;;;;;27.95;13.82;;;1.10;99.90;;;;;;4995374;28;20828;-63
2022/03/13 05:32:55;;;;;;;23.13;13.65;;;1.10;99.90;;;;;;4995435;28;20422;-61
2022/03/13 05:35:25;;;;;;;25.55;12.85;;;1.10;99.90;;;;;;4975412;28;20061;-62
2022/03/13 05:37:52;;;;;;;21.67;12.95;;;1.10;99.90;;;;;;4976024;28;20046;-62
2022/03/13 05:40:20;;;;;;;25.50;13.73;;;1.10;99.90;;;;;;4975687;28;20034;-62
2022/03/13 05:42:50;;;;;;;24.88;12.77;;;1.10;99.90;;;;;;4976204;28;20105;-62
2022/03/13 05:45:22;;;;;;;20.27;10.85;;;1.10;99.90;;;;;;4974307;28;20074;-62
2022/03/13 05:48:09;;;;;;;27.17;13.38;;;1.10;99.90;;;;;;4975934;28;20939;-52
2022/03/13 05:50:37;;;;;;;24.90;13.90;;;1.10;99.90;;;;;;4975974;28;20042;-56
2022/03/13 05:53:04;;;;;;;25.33;12.77;;;1.20;99.90;;;;;;4991838;28;20116;-57
2022/03/13 05:55:31;;;;;;;24.58;13.02;;;1.20;99.90;;;;;;4999419;28;20034;-56
2022/03/13 05:57:59;;;;;;;24.48;12.52;;;1.20;99.90;;;;;;4999122;28;20064;-56
2022/03/13 06:00:29;;;;;;;26.20;13.90;;;1.20;99.90;;;;;;4999367;28;20818;-56
2022/03/13 06:02:56;;;;;;;40.47;16.35;;;1.20;99.90;;;;;;4997694;28;20034;-57
2022/03/13 06:05:23;;;;;;;24.38;13.65;;;1.20;99.90;;;;;;4996486;28;20100;-56
2022/03/13 06:07:51;;;;;;;23.00;12.60;;;1.30;99.90;;;;;;4998784;28;20145;-57
2022/03/13 06:10:21;;;;;;;23.58;12.93;;;1.30;99.90;;;;;;4997955;28;20121;-56
2022/03/13 06:12:48;;;;;;;22.10;11.50;;;1.40;99.90;;;;;;4997315;28;20049;-56
2022/03/13 06:15:17;;;;;;;26.67;11.52;;;1.50;99.90;;;;;;4997421;28;20046;-56
2022/03/13 06:17:47;;;;;;;24.00;12.43;;;1.60;99.90;;;;;;4998567;28;20046;-56
2022/03/13 06:20:15;;;;;;;21.15;11.27;;;1.60;99.90;;;;;;4998647;28;20057;-56
2022/03/13 06:22:46;;;;;;;23.90;11.80;;;1.70;99.90;;;;;;4997314;28;20081;-57
2022/03/13 06:25:15;;;;;;;24.42;12.77;;;1.80;99.90;;;;;;4997076;28;20046;-56
2022/03/13 06:27:42;;;;;;;24.20;12.20;;;1.90;99.90;;;;;;4998264;28;20080;-57
2022/03/13 06:30:16;;;;;;;19.45;10.98;;;2.00;99.90;;;;;;4997839;28;20049;-56
2022/03/13 06:32:46;;;;;;;23.27;11.65;;;2.20;99.90;;;;;;4995346;28;20037;-57
2022/03/13 06:35:15;;;;;;;20.85;11.52;;;2.40;99.90;;;;;;4995469;28;20590;-56
2022/03/13 06:37:42;;;;;;;23.50;11.60;;;2.60;99.90;;;;;;4993603;28;20053;-55
2022/03/13 06:40:16;;;;;;;18.13;10.88;;;2.80;99.90;;;;;;4997325;28;20266;-57
2022/03/13 06:42:43;;;;;;;26.05;11.82;;;3.00;99.90;;;;;;4997866;28;20715;-56
2022/03/13 06:45:12;;;;;;;23.35;12.93;;;3.30;99.90;;;;;;4995211;28;20049;-55
2022/03/13 06:47:40;;;;;;;23.65;13.43;;;3.60;99.90;;;;;;4997524;28;20038;-57
2022/03/13 06:50:08;;;;;;;30.58;15.23;;;3.80;99.90;;;;;;4998059;28;20136;-58
2022/03/13 06:52:37;;;;;;;31.63;13.88;;;4.00;99.90;;;;;;4997792;28;20034;-57
2022/03/13 06:55:04;;;;;;;23.98;13.65;;;4.30;99.90;;;;;;4997258;28;20049;-58
2022/03/13 06:57:31;;;;;;;23.25;13.20;;;4.50;99.50;;;;;;4998440;28;20522;-58
2022/03/13 06:59:58;;;;;;;28.95;14.90;;;4.80;98.40;;;;;;4996730;28;20100;-56
2022/03/13 07:02:25;;;;;;;22.80;13.13;;;5.20;99.00;;;;;;4997875;28;20064;-56
2022/03/13 07:04:52;;;;;;;24.42;13.07;;;5.60;98.10;;;;;;4992991;28;20045;-56
2022/03/13 07:07:19;;;;;;;22.50;12.88;;;6.00;96.00;;;;;;4996114;28;20371;-55
2022/03/13 07:09:46;;;;;;;21.38;12.07;;;6.30;93.60;;;;;;4997419;28;20159;-56
2022/03/13 07:12:13;;;;;;;;;;;6.60;91.50;;;;;;4997815;28;20050;-56
2022/03/13 07:14:46;;;;;;;28.63;14.77;;;6.90;92.20;;;;;;4996959;28;19932;-55
2022/03/13 07:17:15;;;;;;;27.23;14.75;;;7.20;91.70;;;;;;4997542;28;20038;-55
2022/03/13 07:19:43;;;;;;;25.77;13.65;;;7.40;91.50;;;;;;4997197;28;20077;-56
2022/03/13 07:22:12;;;;;;;25.92;14.35;;;7.40;90.80;;;;;;4998019;28;20076;-56
2022/03/13 07:24:39;;;;;;;25.25;14.65;;;7.50;90.90;;;;;;4994312;28;20046;-56
2022/03/13 07:27:07;;;;;;;24.33;13.20;;;7.70;87.70;;;;;;4997462;28;20126;-56
2022/03/13 07:29:34;;;;;;;26.50;15.02;;;7.90;87.80;;;;;;4996957;28;20061;-56
2022/03/13 07:32:02;;;;;;;25.55;14.23;;;8.10;85.90;;;;;;4997478;28;20050;-55
2022/03/13 07:34:28;;;;;;;28.80;15.75;;;8.30;81.60;;;;;;4995492;28;20104;-54
2022/03/13 07:36:55;;;;;;;30.55;16.08;;;8.50;80.40;;;;;;4995921;28;20069;-55
2022/03/13 07:39:22;;;;;;;31.83;16.52;;;8.80;79.30;;;;;;4989979;28;20061;-57
2022/03/13 07:41:50;;;;;;;30.17;15.77;;;9.00;78.30;;;;;;4992435;28;20452;-57
2022/03/13 07:44:17;;;;;;;37.70;18.73;;;9.30;76.20;;;;;;4994974;28;20054;-56
2022/03/13 07:46:47;;;;;;;36.58;17.50;;;9.50;75.00;;;;;;4995888;28;20525;-57
2022/03/13 07:49:13;;;;;;;;;;;9.80;70.70;;;;;;4995031;28;20065;-56
2022/03/13 07:51:43;;;;;;;37.88;16.27;;;10.00;70.30;;;;;;4996491;28;19925;-55
2022/03/13 07:54:11;;;;;;;29.23;15.50;;;10.30;67.60;;;;;;4993714;28;20052;-56
2022/03/13 07:56:38;;;;;;;29.08;16.02;;;10.50;66.60;;;;;;4995844;28;20099;-57
2022/03/13 07:59:04;;;;;;;27.90;15.73;;;10.80;67.20;;;;;;4995779;28;20128;-57
2022/03/13 08:01:31;;;;;;;;;;;11.20;68.10;;;;;;4995275;28;20615;-54
2022/03/13 08:04:05;;;;;;;24.27;13.48;;;11.40;65.00;;;;;;4994320;28;19921;-56
2022/03/13 08:06:35;;;;;;;22.90;13.77;;;11.60;63.90;;;;;;4995112;28;20389;-56
2022/03/13 08:09:03;;;;;;;27.50;14.02;;;11.80;63.20;;;;;;4995459;28;20034;-56
2022/03/13 08:11:33;;;;;;;19.95;13.00;;;12.20;61.60;;;;;;4993743;28;20072;-56
2022/03/13 08:14:04;;;;;;;25.02;12.90;;;12.50;60.50;;;;;;4994023;28;20056;-57
2022/03/13 08:16:31;;;;;;;20.55;12.43;;;12.80;58.70;;;;;;4996349;28;20053;-57
2022/03/13 08:18:58;;;;;;;;;;;13.30;57.40;;;;;;4994349;28;20788;-57
2022/03/13 08:21:24;;;;;;;20.90;12.43;;;13.60;56.30;;;;;;4996078;28;19922;-58
2022/03/13 08:23:52;;;;;;;22.35;13.65;;;13.90;55.80;;;;;;4994485;28;20049;-58
2022/03/13 08:26:19;;;;;;;24.98;13.57;;;14.20;55.40;;;;;;4992720;28;20088;-56
2022/03/13 08:28:46;;;;;;;23.95;13.95;;;14.50;54.80;;;;;;4993826;28;20077;-54
2022/03/13 08:31:13;;;;;;;24.15;13.98;;;14.60;53.20;;;;;;4992517;28;20045;-54
2022/03/13 08:33:45;;;;;;;20.73;13.50;;;14.80;52.90;;;;;;4991342;28;20048;-56
2022/03/13 08:36:13;;;;;;;20.60;13.27;;;15.00;50.50;;;;;;4992960;28;20041;-56
2022/03/13 08:38:40;;;;;;;22.33;14.25;;;15.10;50.50;;;;;;4991882;28;20041;-56
2022/03/13 08:41:07;;;;;;;25.10;15.23;;;15.20;49.80;;;;;;4991433;28;20053;-56
2022/03/13 08:43:33;;;;;;;;;;;15.40;49.20;;;;;;4992617;28;20128;-53
2022/03/13 08:46:00;;;;;;;29.77;16.08;;;15.50;48.50;;;;;;4992475;28;19929;-55
2022/03/13 08:48:29;;;;;;;22.92;14.88;;;15.50;47.80;;;;;;4991786;28;20927;-57
2022/03/13 08:50:56;;;;;;;28.45;17.20;;;15.50;47.50;;;;;;4993279;28;20125;-58
2022/03/13 08:53:24;;;;;;;26.40;15.10;;;15.50;46.90;;;;;;4992511;28;20081;-57
2022/03/13 08:55:52;;;;;;;30.95;16.08;;;15.50;47.10;;;;;;4992187;28;20050;-57
2022/03/13 08:58:19;;;;;;;28.50;17.77;;;15.60;47.40;;;;;;4993040;28;20045;-57
2022/03/13 09:00:46;;;;;;;29.20;19.20;;;15.60;47.00;;;;;;4992227;28;20718;-56
2022/03/13 09:03:13;;;;;;;36.53;18.33;;;15.80;46.80;;;;;;4990600;28;20050;-56
2022/03/13 09:05:40;;;;;;;;;;;15.90;46.30;;;;;;4993965;28;20053;-58
2022/03/13 09:08:07;;;;;;;28.95;18.35;;;16.00;46.50;;;;;;4992079;28;19925;-55
2022/03/13 09:10:34;;;;;;;27.40;18.42;;;16.20;47.30;;;;;;4992337;28;20046;-54
2022/03/13 09:13:01;;;;;;;30.77;18.63;;;16.30;46.50;;;;;;4991585;28;20049;-59
2022/03/13 09:15:28;;;;;;;28.45;18.42;;;16.40;45.60;;;;;;4993188;28;20053;-62
2022/03/13 09:17:55;;;;;;;33.15;20.40;;;16.50;46.00;;;;;;4993814;28;20045;-59
2022/03/13 09:20:23;;;;;;;34.88;20.10;;;16.70;45.90;;;;;;4993769;28;20068;-56
2022/03/13 09:22:50;;;;;;;32.60;20.02;;;16.90;45.60;;;;;;4992725;28;20053;-54
2022/03/13 09:25:18;;;;;;;32.58;20.38;;;17.10;43.50;;;;;;4992277;28;20046;-55
2022/03/13 09:27:45;;;;;;;35.90;23.23;;;17.00;43.90;;;;;;4994521;28;20494;-54
2022/03/13 09:30:13;;;;;;;32.78;21.05;;;17.00;44.80;;;;;;4997194;28;20092;-55
2022/03/13 09:32:41;;;;;;;28.45;18.90;;;17.10;45.20;;;;;;4995894;28;20058;-56
2022/03/13 09:35:11;;;;;;;32.97;20.75;;;17.20;45.10;;;;;;4995368;28;20668;-57
2022/03/13 09:37:39;;;;;;;27.58;18.02;;;17.40;43.40;;;;;;4997244;28;20074;-56
2022/03/13 09:40:14;;;;;;;23.77;16.23;;;17.70;41.60;;;;;;4996935;28;20081;-57
2022/03/13 09:42:42;;;;;;;24.60;15.65;;;18.00;41.50;;;;;;4996795;28;20061;-57
2022/03/13 09:45:10;;;;;;;24.42;15.80;;;18.20;41.00;;;;;;4994730;28;20510;-59
2022/03/13 09:47:37;;;;;;;23.48;13.32;;;18.40;39.60;;;;;;4996695;28;20044;-53
2022/03/13 09:50:06;;;;;;;18.55;12.88;;;18.60;38.90;;;;;;4997215;28;20605;-53
2022/03/13 09:52:34;;;;;;;22.58;13.77;;;18.70;37.30;;;;;;4996740;28;20962;-59
2022/03/13 09:55:00;;;;;;;18.60;11.35;;;18.60;37.40;;;;;;4994375;28;20045;-59
2022/03/13 09:57:28;;;;;;;18.88;13.73;;;18.50;36.80;;;;;;4996757;28;20112;-59
2022/03/13 09:59:56;;;;;;;24.88;16.20;;;18.40;35.80;;;;;;4995237;28;20046;-57
2022/03/13 10:02:31;;;;;;;;;;;18.50;36.90;;;;;;4995107;28;20054;-58
2022/03/13 10:05:05;;;;;;;30.30;18.25;;;18.50;37.30;;;;;;4994924;28;19936;-58
2022/03/13 10:07:51;;;;;;;28.05;17.65;;;18.60;37.90;;;;;;4995668;28;20092;-59
2022/03/13 10:10:17;;;;;;;27.85;19.08;;;18.70;37.80;;;;;;4995863;28;20049;-58
2022/03/13 10:12:46;;;;;;;;;;;18.80;39.60;;;;;;4995242;28;20049;-59
2022/03/13 10:15:13;;;;;;;34.10;17.90;;;18.90;38.90;;;;;;4994182;28;20817;-59
2022/03/13 10:17:41;;;;;;;29.17;18.33;;;18.90;38.00;;;;;;4994863;28;20057;-59
2022/03/13 10:20:26;;;;;;;27.02;19.10;;;19.10;38.20;;;;;;4995154;28;20136;-58
2022/03/13 10:23:01;;;;;;;31.05;20.35;;;19.20;38.60;;;;;;4995656;28;20041;-58
2022/03/13 10:25:35;;;;;;;28.90;17.40;;;19.40;36.80;;;;;;4994428;28;20048;-58
2022/03/13 10:28:22;;;;;;;29.95;19.83;;;19.40;37.70;;;;;;4994147;28;20100;-58
2022/03/13 10:31:03;;;;;;;34.17;19.90;;;19.60;37.80;;;;;;4995172;28;20064;-58
2022/03/13 10:33:55;;;;;;;32.10;19.10;;;19.70;37.20;;;;;;4993057;28;20112;-59
2022/03/13 10:36:31;;;;;;;29.58;19.48;;;19.90;36.90;;;;;;4995258;28;20352;-57
2022/03/13 10:39:00;;;;;;;36.80;22.33;;;20.10;37.10;;;;;;4994740;28;20061;-58
2022/03/13 10:41:44;;;;;;;29.13;20.48;;;20.10;35.60;;;;;;4996168;28;20053;-59
2022/03/13 10:44:15;;;;;;;33.67;20.80;;;20.20;37.20;;;;;;4993748;28;20065;-58
2022/03/13 10:47:01;;;;;;;32.50;20.58;;;20.20;36.90;;;;;;4996568;28;20037;-58
2022/03/13 10:49:40;;;;;;;25.58;18.20;;;20.20;36.30;;;;;;4995736;28;20045;-60
2022/03/13 10:52:24;;;;;;;25.92;17.98;;;20.30;36.40;;;;;;4995210;28;20045;-59
2022/03/13 10:54:53;;;;;;;22.95;15.30;;;20.50;35.80;;;;;;4993464;28;20053;-58
2022/03/13 10:57:19;;;;;;;23.58;15.95;;;20.60;34.30;;;;;;4994443;28;20053;-59
2022/03/13 11:00:09;;;;;;;27.13;17.77;;;20.70;33.80;;;;;;4995346;28;20076;-59
2022/03/13 11:02:36;;;;;;;25.25;18.17;;;20.80;35.20;;;;;;4995047;28;20968;-59
2022/03/13 11:05:05;;;;;;;22.42;16.83;;;20.70;35.40;;;;;;4994747;28;20046;-59
2022/03/13 11:07:32;;;;;;;26.83;17.45;;;20.60;35.90;;;;;;4996216;28;20117;-59
2022/03/13 11:09:59;;;;;;;21.77;16.20;;;20.60;36.00;;;;;;4993364;28;20042;-59
2022/03/13 11:12:26;;;;;;;23.73;17.67;;;20.80;35.60;;;;;;4995229;28;20046;-59
2022/03/13 11:14:55;;;;;;;23.67;16.17;;;20.80;34.60;;;;;;4994075;28;20054;-58
2022/03/13 11:17:27;;;;;;;23.25;16.83;;;20.70;34.20;;;;;;4995885;28;20041;-60
2022/03/13 11:19:57;;;;;;;20.77;15.48;;;20.30;34.70;;;;;;4994881;28;20865;-58
2022/03/13 11:22:25;;;;;;;24.00;16.58;;;20.00;34.20;;;;;;4993624;28;20042;-58
2022/03/13 11:24:55;;;;;;;25.38;17.13;;;19.70;35.80;;;;;;4993294;28;20212;-58
2022/03/13 11:27:25;;;;;;;22.23;14.13;;;19.60;35.80;;;;;;4992137;28;20050;-57
2022/03/13 11:29:53;;;;;;;20.95;14.82;;;19.60;36.60;;;;;;4994256;28;20045;-58
2022/03/13 11:32:34;;;;;;;19.85;14.32;;;19.50;36.40;;;;;;4994088;28;20050;-58
2022/03/13 11:35:10;;;;;;;20.10;13.60;;;19.40;35.40;;;;;;4991141;28;20081;-58
2022/03/13 11:37:50;;;;;;;17.27;12.05;;;19.30;35.80;;;;;;4994540;28;20038;-58
2022/03/13 11:40:39;;;;;;;13.50;9.80;;;19.50;35.60;;;;;;4976668;28;20110;-58
2022/03/13 11:43:18;;;;;;;17.63;11.15;;;19.80;33.80;;;;;;4992602;28;20045;-58
2022/03/13 11:45:53;;;;;;;19.13;13.15;;;20.00;33.80;;;;;;4993672;28;20041;-58
2022/03/13 11:48:23;;;;;;;20.63;12.90;;;20.20;35.60;;;;;;4994317;28;20049;-58
2022/03/13 11:51:03;;;;;;;19.92;12.55;;;20.20;34.50;;;;;;4994435;28;20061;-59
2022/03/13 11:53:37;;;;;;;15.60;11.85;;;19.90;33.70;;;;;;4984867;28;20133;-58
2022/03/13 11:56:25;;;;;;;17.00;11.63;;;19.70;32.90;;;;;;4994521;28;20057;-58
2022/03/13 11:58:55;;;;;;;20.80;12.63;;;19.30;34.00;;;;;;4994046;28;20129;-58
2022/03/13 12:01:32;;;;;;;21.20;13.35;;;19.10;34.40;;;;;;4994171;28;20041;-58
2022/03/13 12:04:14;;;;;;;23.40;14.07;;;18.90;35.20;;;;;;4992372;28;20670;-58
2022/03/13 12:06:56;;;;;;;17.00;12.43;;;18.80;36.00;;;;;;4993886;28;20132;-58
2022/03/13 12:09:32;;;;;;;16.45;11.32;;;18.80;36.50;;;;;;4994709;28;20046;-59
2022/03/13 12:12:06;;;;;;;16.88;12.23;;;18.90;34.20;;;;;;4973865;28;20171;-58
2022/03/13 12:14:55;;;;;;;16.42;11.27;;;18.80;35.70;;;;;;4974139;28;20074;-59
2022/03/13 12:17:27;;;;;;;14.40;10.25;;;18.80;34.60;;;;;;4974348;28;20116;-59
2022/03/13 12:19:56;;;;;;;17.92;11.63;;;18.90;35.80;;;;;;4972879;28;20054;-58
2022/03/13 12:22:25;;;;;;;15.10;9.75;;;19.10;34.50;;;;;;4975009;28;20050;-59
2022/03/13 12:24:57;;;;;;;15.30;11.52;;;19.30;33.10;;;;;;4972052;28;20046;-59
2022/03/13 12:27:25;;;;;;;15.57;10.70;;;19.40;34.90;;;;;;4974378;28;20081;-58
2022/03/13 12:29:55;;;;;;;15.75;11.75;;;19.60;34.70;;;;;;4973984;28;20129;-59
2022/03/13 12:32:34;;;;;;;17.02;12.30;;;19.90;33.20;;;;;;4974221;28;20524;-59
2022/03/13 12:35:03;;;;;;;15.32;10.73;;;20.00;33.70;;;;;;4989844;28;20038;-59
2022/03/13 12:37:30;;;;;;;16.33;11.32;;;20.20;33.50;;;;;;4993245;28;20508;-59
2022/03/13 12:40:00;;;;;;;18.13;10.57;;;20.30;32.00;;;;;;4993623;28;20111;-58
2022/03/13 12:42:34;;;;;;;15.60;11.35;;;20.30;31.40;;;;;;4992929;28;20665;-58
2022/03/13 12:45:10;;;;;;;17.00;12.30;;;20.40;33.20;;;;;;4992870;28;20702;-59
2022/03/13 12:47:40;;;;;;;15.15;11.55;;;20.50;33.10;;;;;;4993347;28;20060;-58
2022/03/13 12:50:10;;;;;;;17.23;10.40;;;20.60;33.50;;;;;;4992613;28;20042;-59
2022/03/13 12:52:37;;;;;;;13.65;10.65;;;20.70;32.70;;;;;;4993262;28;20057;-58